Galani — 9HA3640 — position and weather

sailwx.info

Track history (hours):
 
Tides and Currents Weather Stations Pressure Air Temp Water Temp Dewpoint Dewpoint Depression Visibility Wind Speed Wind Dir Waves Ship Positions

Galani

Last reported at 2018-Jan-08 13:14 UTC. Time now 2018-Jan-19 21:39 UTC.
Position N 35°58' W 005°33'.
Warning: this ship's position is 11 days out of date.

Length 177 m; draft 10.7 m.

Type: Ship (hazmat cat A). MMSI: 229821000.

Date/timePositionNaut miles runAvg speedWind from/ knotsBaromVisibWave heightAir tempDewpointWater temp
2018-Jan-08 13:14N 35°58' W 005°33'314.4
2018-Jan-08 13:01N 35°59' W 005°29'8 0.4
2018-Jan-07 15:24N 36°04' W 005°22'3 7.8
2018-Jan-07 15:00N 36°03' W 005°19'1 1.6
2018-Jan-07 14:30N 36°03' W 005°18'1 1.5
2018-Jan-07 14:00N 36°03' W 005°19'2 4.5
2018-Jan-07 13:30N 36°03' W 005°16'4 0.1
2018-Jan-05 13:52N 36°01' W 005°21'10 0.6
2018-Jan-04 21:42N 35°57' W 005°32'2 8.0
2018-Jan-04 21:31N 35°58' W 005°31'4 8.2
2018-Jan-04 21:01N 35°60' W 005°26'5 9.0
2018-Jan-04 20:31N 36°01' W 005°21'5 9.1
2018-Jan-04 20:01N 36°02' W 005°15'4 0.1
2018-Jan-02 20:39N 36°00' W 005°11'213.9
2018-Jan-02 20:31N 36°00' W 005°13'815.1
2018-Jan-02 20:00N 35°59' W 005°22'43212.6
2018-Jan-01 09:38N 30°49' W 011°24'10411.4
2018-Jan-01 00:30N 29°23' W 012°31'4212.1
2017-Dec-31 21:00N 28°48' W 012°57'612.1
2017-Dec-31 20:29N 28°42' W 013°02'612.4
2017-Dec-31 20:00N 28°37' W 013°05'612.2
2017-Dec-31 19:30N 28°32' W 013°09'611.9
2017-Dec-31 18:58N 28°27' W 013°13'711.8
2017-Dec-31 18:22N 28°21' W 013°18'512.0
2017-Dec-31 17:58N 28°17' W 013°21'711.8
2017-Dec-31 17:21N 28°11' W 013°26'411.9
2017-Dec-31 16:59N 28°08' W 013°28'612.1
2017-Dec-31 16:29N 28°02' W 013°32'612.0
2017-Dec-31 16:00N 27°58' W 013°35'612.2
2017-Dec-31 15:30N 27°52' W 013°39'612.3
2017-Dec-31 15:00N 27°47' W 013°43'612.4
2017-Dec-31 14:30N 27°42' W 013°46'612.4
2017-Dec-31 14:00N 27°37' W 013°50'612.4
2017-Dec-31 13:30N 27°32' W 013°54'612.2
2017-Dec-31 13:00N 27°27' W 013°58'611.7
2017-Dec-31 12:30N 27°23' W 014°03'611.4
2017-Dec-31 11:59N 27°18' W 014°08'511.5
2017-Dec-31 11:30N 27°14' W 014°10'1212.1
2017-Dec-31 10:33N 27°03' W 014°16'112.8
2017-Dec-31 10:29N 27°03' W 014°17'612.5
2017-Dec-31 10:00N 26°57' W 014°20'712.5
2017-Dec-31 09:27N 26°51' W 014°23'3713.2
2017-Dec-31 06:40N 26°19' W 014°44'411.3
2017-Dec-31 06:21N 26°16' W 014°46'411.2
2017-Dec-31 06:00N 26°13' W 014°49'  
Track history (hours):
 
Tides and Currents Weather Stations Pressure Air Temp Water Temp Dewpoint Dewpoint Depression Visibility Wind Speed Wind Dir Waves Ship Positions

Galani

Last reported at 2018-Jan-08 13:14 UTC. Time now 2018-Jan-19 21:39 UTC.
Position N 35°58' W 005°33'.
Warning: this ship's position is 11 days out of date.

Length 177 m; draft 10.7 m.

Type: Ship (hazmat cat A). MMSI: 229821000.

Date/timePositionNaut miles runAvg speedWind from/ knotsBaromVisibWave heightAir tempDewpointWater temp
2018-Jan-08 13:14N 35°58' W 005°33'314.4
2018-Jan-08 13:01N 35°59' W 005°29'8 0.4
2018-Jan-07 15:24N 36°04' W 005°22'3 7.8
2018-Jan-07 15:00N 36°03' W 005°19'1 1.6
2018-Jan-07 14:30N 36°03' W 005°18'1 1.5
2018-Jan-07 14:00N 36°03' W 005°19'2 4.5
2018-Jan-07 13:30N 36°03' W 005°16'4 0.1
2018-Jan-05 13:52N 36°01' W 005°21'10 0.6
2018-Jan-04 21:42N 35°57' W 005°32'2 8.0
2018-Jan-04 21:31N 35°58' W 005°31'4 8.2
2018-Jan-04 21:01N 35°60' W 005°26'5 9.0
2018-Jan-04 20:31N 36°01' W 005°21'5 9.1
2018-Jan-04 20:01N 36°02' W 005°15'4 0.1
2018-Jan-02 20:39N 36°00' W 005°11'213.9
2018-Jan-02 20:31N 36°00' W 005°13'815.1
2018-Jan-02 20:00N 35°59' W 005°22'43212.6
2018-Jan-01 09:38N 30°49' W 011°24'10411.4
2018-Jan-01 00:30N 29°23' W 012°31'4212.1
2017-Dec-31 21:00N 28°48' W 012°57'612.1
2017-Dec-31 20:29N 28°42' W 013°02'612.4
2017-Dec-31 20:00N 28°37' W 013°05'612.2
2017-Dec-31 19:30N 28°32' W 013°09'611.9
2017-Dec-31 18:58N 28°27' W 013°13'711.8
2017-Dec-31 18:22N 28°21' W 013°18'512.0
2017-Dec-31 17:58N 28°17' W 013°21'711.8
2017-Dec-31 17:21N 28°11' W 013°26'411.9
2017-Dec-31 16:59N 28°08' W 013°28'612.1
2017-Dec-31 16:29N 28°02' W 013°32'612.0
2017-Dec-31 16:00N 27°58' W 013°35'612.2
2017-Dec-31 15:30N 27°52' W 013°39'612.3
2017-Dec-31 15:00N 27°47' W 013°43'612.4
2017-Dec-31 14:30N 27°42' W 013°46'612.4
2017-Dec-31 14:00N 27°37' W 013°50'612.4
2017-Dec-31 13:30N 27°32' W 013°54'612.2
2017-Dec-31 13:00N 27°27' W 013°58'611.7
2017-Dec-31 12:30N 27°23' W 014°03'611.4
2017-Dec-31 11:59N 27°18' W 014°08'511.5
2017-Dec-31 11:30N 27°14' W 014°10'1212.1
2017-Dec-31 10:33N 27°03' W 014°16'112.8
2017-Dec-31 10:29N 27°03' W 014°17'612.5
2017-Dec-31 10:00N 26°57' W 014°20'712.5
2017-Dec-31 09:27N 26°51' W 014°23'3713.2
2017-Dec-31 06:40N 26°19' W 014°44'411.3
2017-Dec-31 06:21N 26°16' W 014°46'411.2
2017-Dec-31 06:00N 26°13' W 014°49'  

Dump ship's entire track history